createdAt,value
2023-02-06T00:01:51.800Z,18.50
2023-02-06T00:04:18.986Z,17.23
2023-02-06T00:06:45.627Z,16.45
2023-02-06T00:09:12.458Z,16.60
2023-02-06T00:11:39.035Z,20.58
2023-02-06T00:14:06.075Z,16.05
2023-02-06T00:16:34.621Z,16.83
2023-02-06T00:19:02.234Z,18.95
2023-02-06T00:21:29.837Z,16.73
2023-02-06T00:23:59.243Z,19.38
2023-02-06T00:26:26.361Z,18.08
2023-02-06T00:28:52.934Z,21.57
2023-02-06T00:31:19.891Z,19.27
2023-02-06T00:33:47.856Z,18.60
2023-02-06T00:36:14.406Z,20.67
2023-02-06T00:38:41.138Z,15.88
2023-02-06T00:41:07.713Z,18.30
2023-02-06T00:43:34.320Z,22.17
2023-02-06T00:46:00.901Z,17.38
2023-02-06T00:48:27.814Z,21.63
2023-02-06T00:50:56.015Z,17.13
2023-02-06T00:53:23.177Z,19.20
2023-02-06T00:55:49.768Z,15.13
2023-02-06T00:58:16.514Z,13.40
2023-02-06T01:00:43.595Z,14.27
2023-02-06T01:03:10.326Z,16.25
2023-02-06T01:05:37.524Z,15.30
2023-02-06T01:08:05.789Z,14.30
2023-02-06T01:10:32.612Z,15.10
2023-02-06T01:12:59.193Z,15.80
2023-02-06T01:15:25.885Z,16.15
2023-02-06T01:17:52.434Z,19.03
2023-02-06T01:20:19.173Z,15.20
2023-02-06T01:22:45.860Z,17.98
2023-02-06T01:25:13.748Z,16.35
2023-02-06T01:27:40.305Z,17.55
2023-02-06T01:30:08.188Z,17.37
2023-02-06T01:32:36.504Z,15.30
2023-02-06T01:35:03.107Z,15.93
2023-02-06T01:37:30.094Z,15.43
2023-02-06T01:39:56.688Z,17.48
2023-02-06T01:42:24.630Z,15.20
2023-02-06T01:45:24.534Z,15.40
2023-02-06T01:47:55.442Z,19.08
2023-02-06T01:50:22.814Z,15.43
2023-02-06T01:52:50.154Z,17.05
2023-02-06T01:55:17.203Z,17.23
2023-02-06T01:57:45.357Z,16.88
2023-02-06T02:00:12.692Z,16.70
2023-02-06T02:02:43.673Z,16.15
2023-02-06T02:05:12.353Z,16.83
2023-02-06T02:07:44.790Z,14.50
2023-02-06T02:10:11.377Z,15.25
2023-02-06T02:12:37.972Z,16.70
2023-02-06T02:15:06.918Z,16.67
2023-02-06T02:17:56.454Z,19.42
2023-02-06T02:21:05.809Z,18.17
2023-02-06T02:23:39.800Z,17.70
2023-02-06T02:26:27.266Z,16.67
2023-02-06T02:29:20.596Z,17.52
2023-02-06T02:32:21.102Z,17.98
2023-02-06T02:35:09.657Z,15.03
2023-02-06T02:37:48.363Z,17.23
2023-02-06T02:40:23.229Z,16.85
2023-02-06T02:42:59.286Z,15.10
2023-02-06T02:45:33.391Z,13.55
2023-02-06T02:48:05.908Z,15.70
2023-02-06T02:50:35.400Z,14.45
2023-02-06T02:53:03.264Z,12.68
2023-02-06T02:55:30.067Z,14.50
2023-02-06T02:58:03.235Z,13.90
2023-02-06T03:00:33.332Z,12.70
2023-02-06T03:02:59.858Z,12.63
2023-02-06T03:05:27.748Z,12.18
2023-02-06T03:08:08.526Z,12.75
2023-02-06T03:10:48.116Z,13.70
2023-02-06T03:13:20.936Z,11.03
2023-02-06T03:15:54.640Z,13.05
2023-02-06T03:18:26.276Z,12.00
2023-02-06T03:20:53.045Z,12.75
2023-02-06T03:23:27.404Z,11.93
2023-02-06T03:25:57.896Z,11.37
2023-02-06T03:28:27.495Z,11.20
2023-02-06T03:30:58.080Z,11.35
2023-02-06T03:33:30.443Z,11.52
2023-02-06T03:35:57.730Z,11.45
2023-02-06T03:38:27.434Z,14.43
2023-02-06T03:40:58.048Z,14.15
2023-02-06T03:43:26.645Z,15.40
2023-02-06T03:45:59.922Z,13.57
2023-02-06T03:48:32.779Z,14.85
2023-02-06T03:51:03.359Z,17.13
2023-02-06T03:53:34.624Z,16.40
2023-02-06T03:56:07.701Z,19.85
2023-02-06T03:58:34.419Z,18.95
2023-02-06T04:01:02.684Z,20.15
2023-02-06T04:03:29.702Z,18.80
2023-02-06T04:05:56.461Z,18.30
2023-02-06T04:08:23.084Z,18.52
2023-02-06T04:10:51.032Z,18.13
2023-02-06T04:13:17.772Z,20.10
2023-02-06T04:15:44.272Z,17.73
2023-02-06T04:18:10.808Z,17.98
2023-02-06T04:20:37.391Z,20.75
2023-02-06T04:23:04.048Z,18.00
2023-02-06T04:25:30.553Z,19.55
2023-02-06T04:27:58.713Z,23.70
2023-02-06T04:30:25.332Z,25.48
2023-02-06T04:32:52.147Z,23.20
2023-02-06T04:35:19.101Z,16.45
2023-02-06T04:37:45.704Z,18.95
2023-02-06T04:40:12.806Z,18.23
2023-02-06T04:42:39.549Z,43.28
2023-02-06T04:45:08.729Z,33.28
2023-02-06T04:47:35.331Z,21.30
2023-02-06T04:50:01.956Z,18.17
2023-02-06T04:52:28.664Z,14.90
2023-02-06T04:54:55.204Z,16.73
2023-02-06T04:57:21.889Z,15.43
2023-02-06T04:59:48.475Z,17.08
2023-02-06T05:02:16.523Z,17.67
2023-02-06T05:04:43.061Z,17.60
2023-02-06T05:07:09.608Z,17.30
2023-02-06T05:09:36.159Z,14.70
2023-02-06T05:12:02.684Z,15.27
2023-02-06T05:14:29.349Z,16.20
2023-02-06T05:16:55.913Z,13.40
2023-02-06T05:19:24.132Z,15.98
2023-02-06T05:21:50.638Z,16.35
2023-02-06T05:24:17.302Z,12.43
2023-02-06T05:26:43.965Z,14.15
2023-02-06T05:29:10.590Z,14.33
2023-02-06T05:31:37.362Z,14.52
2023-02-06T05:34:04.041Z,14.48
2023-02-06T05:36:32.121Z,12.98
2023-02-06T05:38:58.728Z,14.95
2023-02-06T05:41:25.293Z,14.70
2023-02-06T05:43:51.845Z,13.85
2023-02-06T05:46:18.423Z,13.00
2023-02-06T05:48:45.033Z,12.77
2023-02-06T05:51:11.864Z,14.48
2023-02-06T05:53:39.814Z,15.57
2023-02-06T05:56:06.859Z,14.25
2023-02-06T05:58:33.450Z,14.13
2023-02-06T06:01:00.107Z,15.63
2023-02-06T06:03:26.822Z,15.75
2023-02-06T06:05:53.876Z,13.97
2023-02-06T06:08:20.701Z,15.07
2023-02-06T06:10:50.754Z,15.02
2023-02-06T06:13:17.510Z,15.00
2023-02-06T06:15:44.062Z,13.48
2023-02-06T06:18:10.625Z,13.70
2023-02-06T06:20:37.236Z,16.00
2023-02-06T06:23:03.752Z,14.73
2023-02-06T06:25:30.474Z,16.77
2023-02-06T06:27:58.404Z,13.30
2023-02-06T06:30:24.977Z,14.60
2023-02-06T06:32:51.498Z,13.55
2023-02-06T06:35:18.268Z,14.63
2023-02-06T06:37:44.999Z,13.57
2023-02-06T06:40:12.227Z,15.13
2023-02-06T06:42:38.916Z,14.73
2023-02-06T06:45:07.907Z,15.90
2023-02-06T06:47:34.492Z,14.13
2023-02-06T06:50:01.184Z,15.50
2023-02-06T06:52:27.875Z,14.82
2023-02-06T06:54:54.467Z,15.13
2023-02-06T06:57:21.353Z,13.68
2023-02-06T06:59:48.107Z,14.60
2023-02-06T07:02:16.629Z,13.65
2023-02-06T07:04:43.575Z,11.63
2023-02-06T07:07:10.151Z,13.00
2023-02-06T07:09:36.745Z,10.70
2023-02-06T07:12:03.857Z,14.80
2023-02-06T07:14:30.352Z,10.93
2023-02-06T07:16:56.946Z,12.10
2023-02-06T07:19:24.923Z,13.10
2023-02-06T07:21:51.483Z,11.90
2023-02-06T07:24:18.039Z,13.45
2023-02-06T07:26:44.556Z,12.02
2023-02-06T07:29:11.066Z,12.90
2023-02-06T07:31:37.739Z,16.07
2023-02-06T07:34:04.337Z,13.23
2023-02-06T07:36:32.465Z,13.38
2023-02-06T07:38:58.999Z,14.63
2023-02-06T07:41:25.808Z,13.95
2023-02-06T07:43:52.320Z,16.93
2023-02-06T07:46:18.921Z,15.38
2023-02-06T07:48:45.561Z,17.70
2023-02-06T07:51:12.122Z,15.63
2023-02-06T07:53:40.132Z,15.00
2023-02-06T07:56:11.586Z,17.83
2023-02-06T07:58:38.305Z,16.98
2023-02-06T08:01:05.760Z,17.95
2023-02-06T08:03:33.062Z,18.08
2023-02-06T08:06:00.127Z,20.92
2023-02-06T08:08:27.060Z,21.00
2023-02-06T08:10:55.180Z,21.40
2023-02-06T08:13:21.701Z,18.15
2023-02-06T08:15:48.495Z,18.20
2023-02-06T08:18:15.035Z,17.83
2023-02-06T08:20:41.599Z,15.10
2023-02-06T08:23:08.181Z,17.90
2023-02-06T08:25:35.138Z,16.27
2023-02-06T08:28:03.591Z,13.32
2023-02-06T08:30:30.411Z,18.95
2023-02-06T08:32:56.955Z,17.53
2023-02-06T08:35:23.562Z,13.68
2023-02-06T08:37:50.126Z,15.73
2023-02-06T08:40:17.098Z,14.85
2023-02-06T08:42:43.640Z,16.00
2023-02-06T08:45:11.581Z,13.57
2023-02-06T08:47:38.117Z,14.63
2023-02-06T08:50:05.236Z,13.80
2023-02-06T08:52:31.750Z,16.00
2023-02-06T08:54:58.401Z,15.77
2023-02-06T08:57:25.018Z,15.50
2023-02-06T08:59:51.746Z,14.70
2023-02-06T09:02:19.628Z,15.45
2023-02-06T09:04:46.371Z,17.58
2023-02-06T09:07:12.963Z,12.68
2023-02-06T09:09:39.716Z,15.57
2023-02-06T09:12:06.527Z,14.80
2023-02-06T09:14:33.125Z,13.77
2023-02-06T09:16:59.831Z,13.30
2023-02-06T09:19:27.708Z,11.35
2023-02-06T09:21:54.556Z,11.30
2023-02-06T09:24:21.590Z,12.63
2023-02-06T09:27:00.765Z,11.02
2023-02-06T09:29:28.347Z,12.60
2023-02-06T09:31:55.082Z,11.13
2023-02-06T09:34:21.586Z,14.10
2023-02-06T09:36:49.661Z,9.48
2023-02-06T09:39:16.167Z,10.95
2023-02-06T09:41:44.346Z,13.35
2023-02-06T09:44:18.441Z,11.80
2023-02-06T09:46:49.688Z,10.40
2023-02-06T09:49:20.895Z,9.95
2023-02-06T09:52:04.818Z,11.52
2023-02-06T09:54:40.110Z,9.05
2023-02-06T09:57:12.387Z,11.50
2023-02-06T09:59:43.566Z,12.37
2023-02-06T10:02:33.966Z,12.15
2023-02-06T10:05:07.191Z,11.13
2023-02-06T10:07:52.654Z,11.25
2023-02-06T10:10:25.206Z,13.38
2023-02-06T10:12:59.294Z,12.43
2023-02-06T10:15:32.574Z,8.95
2023-02-06T10:18:05.834Z,8.15
2023-02-06T10:20:34.378Z,10.45
2023-02-06T10:23:13.679Z,10.25
2023-02-06T10:25:44.766Z,8.13
2023-02-06T10:28:22.252Z,11.23
2023-02-06T10:31:03.589Z,9.55
2023-02-06T10:33:40.932Z,12.10
2023-02-06T10:36:18.084Z,12.20
2023-02-06T10:39:06.894Z,13.33
2023-02-06T10:41:41.234Z,12.63
2023-02-06T10:44:18.401Z,9.05
2023-02-06T10:46:47.717Z,11.88
2023-02-06T10:49:21.813Z,9.73
2023-02-06T10:51:52.548Z,9.40
2023-02-06T10:54:23.204Z,9.98
2023-02-06T10:56:52.627Z,13.70
2023-02-06T10:59:24.857Z,11.75
2023-02-06T11:01:55.808Z,9.75
2023-02-06T11:04:29.530Z,9.57
2023-02-06T11:07:01.521Z,10.45
2023-02-06T11:09:30.010Z,10.85
2023-02-06T11:11:58.347Z,11.13
2023-02-06T11:14:28.046Z,11.88
2023-02-06T11:16:54.804Z,10.77
2023-02-06T11:19:26.387Z,10.52
2023-02-06T11:21:55.968Z,11.25
2023-02-06T11:24:24.768Z,10.50
2023-02-06T11:26:56.509Z,10.45
2023-02-06T11:29:26.898Z,9.40
2023-02-06T11:31:57.341Z,9.77
2023-02-06T11:34:28.273Z,9.35
2023-02-06T11:36:56.712Z,11.20
2023-02-06T11:39:26.768Z,10.15
2023-02-06T11:42:00.543Z,9.43
2023-02-06T11:44:35.861Z,10.43
2023-02-06T11:47:19.841Z,13.00
2023-02-06T11:49:46.455Z,9.65
2023-02-06T11:52:27.825Z,12.82
2023-02-06T11:54:55.129Z,8.70
2023-02-06T11:57:24.394Z,8.65
2023-02-06T11:59:53.680Z,10.90
2023-02-06T12:02:27.426Z,9.18
2023-02-06T12:05:01.554Z,10.10
2023-02-06T12:07:31.277Z,9.93
2023-02-06T12:09:57.814Z,10.00
2023-02-06T12:12:29.600Z,10.00
2023-02-06T12:15:01.716Z,8.50
2023-02-06T12:17:34.543Z,11.15
2023-02-06T12:20:06.309Z,11.90
2023-02-06T12:22:40.016Z,10.93
2023-02-06T12:25:25.221Z,13.80
2023-02-06T12:27:56.981Z,11.70
2023-02-06T12:30:31.746Z,9.05
2023-02-06T12:33:05.360Z,7.50
2023-02-06T12:35:36.461Z,7.75
2023-02-06T12:38:09.823Z,7.68
2023-02-06T12:40:44.946Z,7.93
2023-02-06T12:43:15.225Z,8.13
2023-02-06T12:45:49.971Z,8.23
2023-02-06T12:48:22.365Z,9.25
2023-02-06T12:50:55.783Z,11.82
2023-02-06T12:53:28.269Z,10.70
2023-02-06T12:56:00.614Z,7.75
2023-02-06T12:58:36.658Z,10.67
2023-02-06T13:01:28.873Z,11.60
2023-02-06T13:04:02.356Z,9.48
2023-02-06T13:06:32.604Z,10.25
2023-02-06T13:09:02.275Z,9.82
2023-02-06T13:11:33.002Z,11.07
2023-02-06T13:14:04.744Z,11.52
2023-02-06T13:16:42.738Z,10.50
2023-02-06T13:19:21.729Z,10.13
2023-02-06T13:21:51.613Z,11.48
2023-02-06T13:24:20.204Z,10.33
2023-02-06T13:27:17.239Z,11.23
2023-02-06T13:29:46.492Z,11.85
2023-02-06T13:32:41.007Z,9.77
2023-02-06T13:35:19.443Z,7.90
2023-02-06T13:37:48.418Z,9.53
2023-02-06T13:40:26.087Z,10.13
2023-02-06T13:42:55.949Z,8.93
2023-02-06T13:45:27.797Z,11.60
2023-02-06T13:48:39.850Z,9.95
2023-02-06T13:51:18.617Z,9.20
2023-02-06T13:54:13.920Z,10.93
2023-02-06T13:56:52.457Z,10.02
2023-02-06T13:59:23.461Z,9.20
2023-02-06T14:01:52.812Z,12.07
2023-02-06T14:04:25.099Z,10.00
2023-02-06T14:07:36.393Z,11.52
2023-02-06T14:10:17.295Z,8.00
2023-02-06T14:13:00.512Z,7.55
2023-02-06T14:15:33.348Z,7.28
2023-02-06T14:18:15.263Z,8.47
2023-02-06T14:21:07.963Z,8.35
2023-02-06T14:23:49.300Z,10.52
2023-02-06T14:26:28.703Z,8.88
2023-02-06T14:29:04.868Z,8.88
2023-02-06T14:31:46.334Z,8.33
2023-02-06T14:34:30.156Z,7.47
2023-02-06T14:37:12.785Z,8.27
2023-02-06T14:39:47.795Z,10.02
2023-02-06T14:42:22.504Z,9.65
2023-02-06T14:44:53.990Z,8.83
2023-02-06T14:47:24.581Z,9.25
2023-02-06T14:49:53.491Z,7.80
2023-02-06T14:52:23.645Z,12.45
2023-02-06T14:54:50.912Z,6.93
2023-02-06T14:57:22.120Z,7.20
2023-02-06T14:59:54.608Z,7.93
2023-02-06T15:02:28.298Z,8.02
2023-02-06T15:04:57.249Z,5.43
2023-02-06T15:07:27.968Z,6.25
2023-02-06T15:09:58.508Z,6.57
2023-02-06T15:12:26.053Z,5.80
2023-02-06T15:14:54.667Z,8.40
2023-02-06T15:17:22.911Z,7.80
2023-02-06T15:19:49.582Z,6.97
2023-02-06T15:22:25.106Z,9.13
2023-02-06T15:25:03.639Z,13.32
2023-02-06T15:27:32.650Z,11.70
2023-02-06T15:30:00.625Z,9.43
2023-02-06T15:32:32.060Z,7.72
2023-02-06T15:35:01.145Z,7.50
2023-02-06T15:37:31.515Z,9.57
2023-02-06T15:40:04.771Z,10.73
2023-02-06T15:42:31.727Z,8.52
2023-02-06T15:44:59.796Z,7.53
2023-02-06T15:47:26.531Z,8.47
2023-02-06T15:49:53.270Z,8.13
2023-02-06T15:52:36.100Z,9.27
2023-02-06T15:55:03.086Z,8.45
2023-02-06T15:57:33.732Z,8.38
2023-02-06T16:00:00.909Z,10.30
2023-02-06T16:02:32.834Z,7.78
2023-02-06T16:05:01.175Z,9.70
2023-02-06T16:07:30.212Z,8.07
2023-02-06T16:10:01.373Z,8.70
2023-02-06T16:12:33.053Z,10.43
2023-02-06T16:15:01.947Z,9.32
2023-02-06T16:17:32.348Z,8.98
2023-02-06T16:20:00.369Z,10.40
2023-02-06T16:22:28.921Z,10.20
2023-02-06T16:25:19.496Z,7.70
2023-02-06T16:27:47.631Z,10.00
2023-02-06T16:30:24.555Z,11.38
2023-02-06T16:32:55.112Z,9.52
2023-02-06T16:35:23.051Z,8.95
2023-02-06T16:37:50.811Z,9.83
2023-02-06T16:40:19.529Z,10.57
2023-02-06T16:42:46.509Z,9.57
2023-02-06T16:45:18.247Z,10.60
2023-02-06T16:47:45.049Z,8.38
2023-02-06T16:50:11.708Z,10.67
2023-02-06T16:52:41.162Z,10.80
2023-02-06T16:55:18.765Z,11.30
2023-02-06T16:57:48.622Z,11.35
2023-02-06T17:00:20.576Z,11.32
2023-02-06T17:02:48.920Z,9.87
2023-02-06T17:05:15.634Z,9.45
2023-02-06T17:07:42.928Z,9.85
2023-02-06T17:10:12.015Z,12.65
2023-02-06T17:12:38.880Z,10.02
2023-02-06T17:15:07.802Z,10.40
2023-02-06T17:17:34.404Z,11.35
2023-02-06T17:20:01.104Z,13.80
2023-02-06T17:22:27.656Z,10.05
2023-02-06T17:24:54.346Z,10.80
2023-02-06T17:27:22.355Z,10.80
2023-02-06T17:29:50.366Z,11.05
2023-02-06T17:32:18.313Z,13.50
2023-02-06T17:34:44.997Z,11.85
2023-02-06T17:37:13.282Z,9.73
2023-02-06T17:39:39.999Z,11.37
2023-02-06T17:42:06.517Z,9.52
2023-02-06T17:44:33.235Z,10.60
2023-02-06T17:46:59.764Z,12.63
2023-02-06T17:49:27.830Z,11.20
2023-02-06T17:51:54.566Z,11.00
2023-02-06T17:54:21.102Z,11.38
2023-02-06T17:56:48.148Z,10.07
2023-02-06T17:59:14.718Z,9.38
2023-02-06T18:01:41.457Z,12.57
2023-02-06T18:04:11.396Z,9.57
2023-02-06T18:06:39.786Z,13.85
2023-02-06T18:09:06.386Z,11.25
2023-02-06T18:11:33.166Z,11.35
2023-02-06T18:13:59.750Z,10.70
2023-02-06T18:16:28.387Z,9.97
2023-02-06T18:18:55.099Z,8.98
2023-02-06T18:21:22.442Z,12.07
2023-02-06T18:23:52.289Z,11.68
2023-02-06T18:26:19.311Z,12.90
2023-02-06T18:28:46.117Z,11.13
2023-02-06T18:31:25.931Z,11.02
2023-02-06T18:33:52.501Z,26.75
2023-02-06T18:36:20.240Z,29.40
2023-02-06T18:38:48.232Z,10.85
2023-02-06T18:41:16.779Z,8.47
2023-02-06T18:43:43.504Z,7.95
2023-02-06T18:46:10.110Z,8.07
2023-02-06T18:48:36.677Z,7.38
2023-02-06T18:51:06.923Z,8.07
2023-02-06T18:53:33.681Z,8.43
2023-02-06T18:56:00.213Z,7.78
2023-02-06T18:58:28.430Z,8.10
2023-02-06T19:00:54.973Z,7.07
2023-02-06T19:03:21.767Z,6.85
2023-02-06T19:05:48.352Z,6.77
2023-02-06T19:08:14.901Z,6.80
2023-02-06T19:10:41.409Z,7.45
2023-02-06T19:13:07.960Z,7.57
2023-02-06T19:15:36.154Z,7.65
2023-02-06T19:18:02.721Z,9.53
2023-02-06T19:20:29.334Z,8.73
2023-02-06T19:22:55.857Z,8.48
2023-02-06T19:25:22.616Z,6.72
2023-02-06T19:27:49.195Z,6.85
2023-02-06T19:30:16.062Z,7.73
2023-02-06T19:32:43.923Z,8.75
2023-02-06T19:35:10.670Z,7.45
2023-02-06T19:37:37.230Z,7.22
2023-02-06T19:40:04.205Z,6.78
2023-02-06T19:42:30.790Z,6.90
2023-02-06T19:44:57.508Z,6.93
2023-02-06T19:47:24.230Z,6.72
2023-02-06T19:49:52.684Z,8.05
2023-02-06T19:52:20.061Z,7.25
2023-02-06T19:54:46.775Z,6.80
2023-02-06T19:57:13.629Z,7.28
2023-02-06T19:59:40.796Z,8.00
2023-02-06T20:02:07.351Z,7.53
2023-02-06T20:04:36.166Z,7.82
2023-02-06T20:07:04.117Z,7.10
2023-02-06T20:09:31.003Z,6.15
2023-02-06T20:11:58.078Z,6.97
2023-02-06T20:14:25.607Z,6.22
2023-02-06T20:16:52.272Z,7.03
2023-02-06T20:19:21.422Z,7.57
2023-02-06T20:21:50.836Z,7.47
2023-02-06T20:24:20.351Z,7.65
2023-02-06T20:26:48.049Z,6.35
2023-02-06T20:29:19.649Z,6.05
2023-02-06T20:31:46.633Z,5.83
2023-02-06T20:34:13.606Z,6.10
2023-02-06T20:36:40.288Z,6.45
2023-02-06T20:39:06.857Z,7.75
2023-02-06T20:41:34.792Z,7.43
2023-02-06T20:44:02.306Z,6.00
2023-02-06T20:46:30.781Z,4.63
2023-02-06T20:48:59.513Z,5.20
2023-02-06T20:51:26.399Z,5.10
2023-02-06T20:53:53.169Z,5.20
2023-02-06T20:56:20.854Z,4.27
2023-02-06T20:58:49.445Z,4.55
2023-02-06T21:01:18.075Z,4.75
2023-02-06T21:03:45.711Z,5.30
2023-02-06T21:06:13.412Z,3.95
2023-02-06T21:08:40.303Z,5.87
2023-02-06T21:11:07.228Z,5.72
2023-02-06T21:13:34.273Z,7.50
2023-02-06T21:16:02.594Z,6.78
2023-02-06T21:18:31.314Z,5.68
2023-02-06T21:21:06.264Z,5.97
2023-02-06T21:23:32.800Z,7.22
2023-02-06T21:25:59.494Z,6.85
2023-02-06T21:28:26.042Z,6.38
2023-02-06T21:30:59.829Z,6.53
2023-02-06T21:33:27.825Z,5.03
2023-02-06T21:35:54.580Z,5.95
2023-02-06T21:38:22.681Z,5.90
2023-02-06T21:40:49.477Z,5.22
2023-02-06T21:43:16.519Z,5.45
2023-02-06T21:45:44.422Z,6.10
2023-02-06T21:48:11.038Z,6.10
2023-02-06T21:50:40.153Z,6.10
2023-02-06T21:53:08.105Z,7.07
2023-02-06T21:55:35.219Z,5.90
2023-02-06T21:58:02.002Z,6.20
2023-02-06T22:00:28.775Z,6.80
2023-02-06T22:02:55.562Z,6.80
2023-02-06T22:05:22.329Z,6.63
2023-02-06T22:07:50.425Z,6.13
2023-02-06T22:10:17.136Z,6.40
2023-02-06T22:12:48.123Z,6.35
2023-02-06T22:15:14.708Z,7.97
2023-02-06T22:17:41.284Z,7.25
2023-02-06T22:20:08.360Z,7.53
2023-02-06T22:22:34.897Z,7.77
2023-02-06T22:25:02.912Z,6.35
2023-02-06T22:27:31.613Z,6.57
2023-02-06T22:29:58.178Z,7.43
2023-02-06T22:32:24.947Z,7.70
2023-02-06T22:34:51.538Z,7.00
2023-02-06T22:37:18.129Z,7.38
2023-02-06T22:39:44.911Z,7.05
2023-02-06T22:42:12.834Z,7.90
2023-02-06T22:44:39.597Z,7.53
2023-02-06T22:47:06.244Z,6.77
2023-02-06T22:49:32.886Z,7.32
2023-02-06T22:51:59.453Z,7.75
2023-02-06T22:54:26.016Z,8.38
2023-02-06T22:56:52.522Z,8.68
2023-02-06T22:59:23.199Z,6.50
2023-02-06T23:01:51.457Z,6.20
2023-02-06T23:04:19.802Z,7.38
2023-02-06T23:06:46.867Z,5.97
2023-02-06T23:09:15.988Z,6.53
2023-02-06T23:11:42.707Z,6.33
2023-02-06T23:14:12.217Z,6.22
2023-02-06T23:16:40.737Z,6.07
2023-02-06T23:19:08.037Z,6.60
2023-02-06T23:21:36.943Z,6.18
2023-02-06T23:24:04.998Z,5.50
2023-02-06T23:26:32.596Z,5.75
2023-02-06T23:29:00.982Z,5.95
2023-02-06T23:31:29.089Z,5.70
2023-02-06T23:33:57.156Z,6.35
2023-02-06T23:36:25.993Z,5.43
2023-02-06T23:38:52.552Z,6.47
2023-02-06T23:41:22.350Z,6.32
2023-02-06T23:43:50.277Z,7.03
2023-02-06T23:46:17.285Z,6.85
2023-02-06T23:48:44.038Z,6.43
2023-02-06T23:51:11.932Z,6.40
2023-02-06T23:53:38.690Z,6.85
2023-02-06T23:56:11.051Z,6.65
2023-02-06T23:58:37.646Z,7.63
